x

Northwestern Hawaii Two - 190nm Nw Of Kauai Is, Hi (51101) Wave Buoy

11:50am - Sun 26th Apr 2015 All times are HST. -10 hours from GMT.

  • Sig Wave height 11.5ft
  • Swell Direction
  • Peak Period 12s
  • Average Period 8s
  • Wind
    25mph, 29mph gusts
  • Sea Temp 75°f
  • Air Temp 72°f
  • Sea Pressure 1018.1mb
  • Northwestern Hawaii Two - 190nm Nw Of Kauai Is, Hi
  • Northwestern Hawaii Two - 190nm Nw Of Kauai Is, Hi

More Historic Weather Station data

Upgrade to MSW Pro to gain access to the past 30 days of data for over 8000 Wavebouys and Weather Stations around the globe.

Join Pro

Comparision Forecast

View Surf forecast
   
Sun 04/26 11:50am 11.5ft 12s 8s 25 29 mph 1018.1mb 75f 72f
10:50am 12ft 11s 8s 25 29 mph 1018.2mb 75f 72f
9:50am 10ft 13s 7s 25 29 mph 1017.7mb 75f 73f
8:50am 9ft 12s 7s 25 29 mph 1017mb 75f 73f
7:50am 8ft 12s 7s 27 31 mph 1016.5mb 75f 70f
6:50am 7ft 10s 7s 22 31 mph 1015.5mb 75f 71f
5:50am 5.5ft 10s 7s 16 18 mph 1014.6mb 75f 71f
4:50am 5.5ft 9s 7s 13 16 mph 1014mb 76f 71f
3:50am 6ft 9s 7s 16 18 mph 1013.6mb 75f 70f
2:50am 5.5ft 9s 7s 7 13 mph 1013.8mb 75f 70f
1:50am 5.5ft 8s 7s 9 11 mph 1013.9mb 76f 70f
12:50am 5.5ft 8s 7s 7 9 mph 1014.4mb 75f 71f
Sat 04/25 11:50pm 6ft 9s 7s 11 13 mph 1014.7mb 75f 71f
10:50pm 5ft 9s 7s 7 9 mph 1014.9mb 75f 73f
9:50pm 6ft 9s 7s 7 11 mph 1014.4mb 75f 73f
8:50pm 5.5ft 9s 7s 9 11 mph 1014mb 76f 72f
7:50pm 6ft 9s 6s 9 13 mph 1013.4mb 76f 72f
6:50pm 6ft 9s 6s 16 18 mph 1012.9mb 76f 73f
5:50pm 6ft 10s 6s 16 20 mph 1012.5mb 76f 73f
4:50pm 6ft 8s 6s 18 20 mph 1012.3mb 76f 73f
3:50pm 6ft 9s 6s 18 20 mph 1012.3mb 76f 73f
2:50pm 6.5ft 9s 7s 16 20 mph 1012.5mb 76f 73f
1:50pm 6ft 9s 7s 16 20 mph 1013mb 76f 73f
12:50pm 7ft 9s 7s 18 22 mph 1013.3mb 75f 73f
11:50am 6.5ft 9s 7s 13 18 mph 1013.6mb 75f 73f
10:50am 6.5ft 10s 7s 18 22 mph 1013.5mb 75f 73f
9:50am 7ft 9s 7s 18 22 mph 1013.4mb 75f 73f
8:50am 7.5ft 9s 7s 13 18 mph 1013.2mb 75f 73f
7:50am 7ft 9s 7s 13 18 mph 1013mb 75f 73f
6:50am 7ft 8s 7s 13 18 mph 1012.5mb 75f 72f
5:50am 7ft 9s 7s 11 16 mph 1011.8mb 75f 72f
4:50am 8ft 10s 8s 13 18 mph 1011.3mb 75f 72f
3:50am 7ft 9s 7s 13 16 mph 1011.5mb 75f 71f
2:50am 7ft 9s 7s 13 16 mph 1011.4mb 75f 72f
1:50am 7.5ft 10s 7s 11 13 mph 1012mb 75f 72f
12:50am 7.5ft 10s 7s 13 16 mph 1012.4mb 74f 73f
Fri 04/24 11:50pm 7ft 9s 7s 11 16 mph 1012.6mb 74f 73f
10:50pm 7.5ft 10s 7s 9 11 mph 1012.8mb 74f 72f
9:50pm 7.5ft 9s 7s 7 11 mph 1013.2mb 74f 72f
8:50pm 8ft 10s 7s 7 9 mph 1012.9mb 74f 72f
7:50pm 8ft 10s 7s 4 7 mph 1012.8mb 74f 70f
6:50pm 8.5ft 10s 7s 4 9 mph 1012.3mb 74f 69f
5:50pm 8.5ft 10s 7s 11 16 mph 1012mb 74f 69f
4:50pm 7.5ft 10s 6s 13 18 mph 1011.7mb 74f 69f
3:50pm 7.5ft 10s 7s 20 25 mph 1011.1mb 74f 69f
2:50pm 7.5ft 11s 6s 18 27 mph 1011.1mb 74f 71f
1:50pm 9ft 10s 6s 25 29 mph 1011.4mb 75f 73f
12:50pm 10ft 11s 7s 18 22 mph 1012.1mb 74f 72f
11:50am 8.5ft 10s 6s 25 29 mph 1012.4mb 74f 73f
10:50am 10ft 11s 7s 18 22 mph 1013mb 74f 74f
9:50am 9.5ft 10s 7s 20 25 mph 1012.8mb 75f 74f
8:50am 10ft 10s 7s 22 29 mph 1012.7mb 75f 73f
7:50am 10ft 9s 6s 22 25 mph 1012.2mb 75f 73f
6:50am 10ft 7s 6s 29 34 mph 1011.6mb 75f 73f
5:50am 10ft 9s 6s 25 29 mph 1011.1mb 75f 73f
4:50am 9ft 10s 6s 20 27 mph 1011.3mb 75f 72f
3:50am 9.5ft 9s 6s 25 29 mph 1010.6mb 75f 75f
2:50am 10ft 10s 6s 22 27 mph 1010.7mb 75f 75f
1:50am 10ft 10s 6s 31 38 mph 1011.7mb 75f 72f
12:50am 8.5ft 10s 6s 29 34 mph 1011.5mb 75f 74f
Thu 04/23 11:50pm 8.5ft 10s 6s 29 36 mph 1012mb 75f 74f
10:50pm 8.5ft 9s 7s 22 27 mph 1012.9mb 75f 74f
9:50pm 9ft 10s 7s 25 29 mph 1012.7mb 75f 73f
8:50pm 9ft 10s 7s 22 25 mph 1012.8mb 75f 73f
7:50pm 9ft 10s 6s 27 31 mph 1011.5mb 75f 73f
6:50pm 9ft 10s 7s 25 29 mph 1011.4mb 75f 74f
5:50pm 8.5ft 10s 7s 18 20 mph 1011.6mb 75f 71f
4:50pm 9ft 10s 7s 20 25 mph 1011.6mb 75f 71f
3:50pm 8.5ft 10s 7s 9 11 mph 1011.7mb 75f 71f
2:50pm 9ft 9s 6s 27 31 mph 1010.9mb 75f 74f
1:50pm 9ft 9s 6s 22 27 mph 1011.2mb 75f 74f
12:50pm 8.5ft 10s 6s 25 29 mph 1011.4mb 75f 74f
11:50am 8.5ft 10s 6s 22 27 mph 1011.8mb 75f 75f
10:50am 9ft 9s 7s 22 27 mph 1012.3mb 74f 75f
9:50am 9ft 9s 6s 16 18 mph 1012.3mb 74f 74f
8:50am 10ft 9s 6s 31 36 mph 1011.8mb 74f 71f
7:50am 9ft 10s 6s 20 25 mph 1011.5mb 74f 76f
6:50am 10ft 9s 6s 22 27 mph 1010.9mb 74f 75f
5:50am 9ft 9s 6s 22 29 mph 1010.5mb 75f 75f
4:50am 9ft 9s 6s 25 34 mph 1010.2mb 74f 73f
3:50am 9ft 9s 6s 22 27 mph 1010.3mb 74f 75f
2:50am 9ft 9s 6s 22 27 mph 1010.7mb 74f 76f
1:50am 8ft 9s 6s 25 29 mph 1011.3mb 74f 75f
12:50am 7ft 9s 6s 25 29 mph 1012.1mb 74f 75f
Wed 04/22 11:50pm 8ft 10s 6s 25 31 mph 1012.5mb 74f 75f